CYYCCYLW

Guest
Details From CYYC - CALGARY INTL
To CYLW - Kelowna
Flight Number -
Tags decoded
Created
Modified
Stats Distance 216 nm / 400 km
Max Altitude 0 ft / 0 m
Waypoints 2
Social Downloads 1
Likes 0
Share VATSIM

Download

Looking for another format? Having issues loading an existing format? Contact us
Advertisement - Login to hide

Notes

Requested: CYYC ROVMA UKSAP NOVAR CYLW Unmatched points: ROVMA UKSAP NOVAR

Route

CYYC CYLW

ID Type Via Altitude Latitude Longitude Leg Dist Tot Dist Heading (true) Name
O CYYC APT - 0 ft / 0 m 51.11320˚ -114.02004˚ - 0 nm - CALGARY INTL
O CYLW APT - 0 ft / 0 m 49.95612˚ -119.37776˚ 215 nm 215 nm 253° / 249° Kelowna

Altitude Profile

Advertisement - Login to hide

Weather


0- 5 10 15 20 25 30 35+ Temperature / ° C

Clouds and Precipitation
Forecast for 2018-05-28 00:00 UTC. Updated 6 hours ago

Ground ~20,000 ft ~40,000 ft Winds

CYYC

Details ICAO CYYC (YYC)
Name CALGARY INTL
Region Canada
Timezone America/Edmonton (UTC-6.0)
Stats Elevation 3,557 ft / 1,084 m (AMSL)
Location 51.113197° -114.020044°
Runways 3
Magnetic Variation 14.025° E

METAR

Not found

TAF

TAF CYYC 280238Z 2803/2824 16010KT P6SM FEW060 SCT220 FM281200 23006KT P6SM FEW100 SCT250 FM282100 25015KT P6SM FEW080 SCT250 RMK NXT FCST BY 280600Z

Decode

Departure Runways

ID Width Length Bearing (true) Bearing (mag) Surface Threshold Offset Overrun Length
07 144 ft / 44 m 6,561 ft / 2,000 m 90.76° 76.74° Asphalt 0 ft / 0 m 0 ft / 0 m
10 210 ft / 64 m 8,433 ft / 2,570 m 119.00° 104.98° Asphalt 0 ft / 0 m 0 ft / 0 m
16 200 ft / 61 m 12,703 ft / 3,872 m 179.00° 164.98° Asphalt 0 ft / 0 m 0 ft / 0 m
25 144 ft / 44 m 6,561 ft / 2,000 m 270.78° 256.76° Asphalt 0 ft / 0 m 0 ft / 0 m
28 210 ft / 64 m 8,433 ft / 2,570 m 299.02° 285.00° Asphalt 0 ft / 0 m 121 ft / 37 m
34 200 ft / 61 m 12,703 ft / 3,872 m 359.00° 344.98° Asphalt 0 ft / 0 m 0 ft / 0 m

CYLW

Details ICAO CYLW (YLW)
Name Kelowna
Region Canada
Timezone America/Vancouver (UTC-7.0)
Stats Elevation 1,409 ft / 429 m (AMSL)
Location 49.956117° -119.377757°
Runways 1
Magnetic Variation 15.564° E

METAR

Not found

TAF

TAF TAF CYLW 280038Z 2801/2813 VRB03KT P6SM FEW250 RMK FCST BASED ON AUTO OBS. NXT FCST BY 280700Z

Decode

Destination Runways

ID Width Length Bearing (true) Bearing (mag) Surface Threshold Offset Overrun Length
16 200 ft / 61 m 7,299 ft / 2,225 m 174.89° 159.33° Asphalt 0 ft / 0 m 0 ft / 0 m
34 200 ft / 61 m 7,299 ft / 2,225 m 354.89° 339.33° Asphalt 0 ft / 0 m 0 ft / 0 m

Approach Navaids

Runway Type Ident Frequency Range Bearing (true) Bearing (mag) Slope Elevation
16 Localiser ILW 111.30 MHz 18 nm / 33 km 174.87° 159.31° - 1,049 ft / 320 m (AMSL)
16 Glidescope ILW 111.30 MHz 10 nm / 19 km 174.89° 159.32° 3.20° 1,409 ft / 429 m (AMSL)
16 DME ILW 111.30 MHz 18 nm / 33 km - - - 1,409 ft / 429 m (AMSL)

Popular Alternatives